Terminal Aerodrome Forecast
Issued by NWS Columbia, SC

Home | Current Version | Previous Version | Text Only | Print | Product List | Glossary On
Versions: 1 2 3 4 5 6 7 8 9 10 11 12 13 14 15 16 17 18 19 20 21 22 23 24 25 26 27 28 29 30 31 32 33 34 35 36 37 38 39 40 41
000
FTAK31 PAJN 232300
TAFAGS
TAF
PAGS 232322Z 2400/2424 25006KT P6SM SCT050 OVC080
     FM240300 VRB03KT P6SM SCT025 OVC050
     FM240900 VRB03KT P6SM VCSH BKN025 OVC050
     FM241200 00000KT P6SM VCSH SCT020 OVC040
     FM241800 VRB03KT P6SM -RA OVC025
     FM242100 16006KT P6SM -RA SCT025 OVC050
      AMD NOT SKED=

USA.gov is the U.S. government's official web portal to all federal, state and local government web resources and services.